Time;durP1;ratioP1;P1;durP2;ratioP2;P2;SDS_P1;SDS_P2;PMS_P1;PMS_P2;Temp;Humidity;BMP_temperature;BMP_pressure;BME280_temperature;BME280_humidity;BME280_pressure;Samples;Min_cycle;Max_cycle;Signal;HPM_P1;HPM_P2
2021/08/18 00:01:45;;;;;;;21.17;10.52;;;15.10;99.90;;;;;;5051236;28;20496;-67
2021/08/18 00:04:11;;;;;;;24.90;11.15;;;15.10;99.90;;;;;;5053257;28;20037;-67
2021/08/18 00:06:37;;;;;;;20.38;9.85;;;15.10;99.90;;;;;;5054975;28;20075;-67
2021/08/18 00:09:04;;;;;;;21.38;10.75;;;15.10;99.90;;;;;;5054037;28;20033;-67
2021/08/18 00:11:30;;;;;;;23.05;10.13;;;15.10;99.90;;;;;;5053687;28;20029;-67
2021/08/18 00:13:56;;;;;;;24.52;10.38;;;15.10;99.90;;;;;;5054277;28;20048;-67
2021/08/18 00:16:25;;;;;;;24.90;11.50;;;15.00;99.90;;;;;;5054961;28;20083;-68
2021/08/18 00:18:52;;;;;;;22.38;10.70;;;15.00;99.90;;;;;;5053801;28;20401;-68
2021/08/18 00:21:20;;;;;;;27.08;11.65;;;14.90;99.90;;;;;;5054982;28;20032;-67
2021/08/18 00:23:46;;;;;;;23.73;10.57;;;15.00;99.90;;;;;;5037089;28;20037;-68
2021/08/18 00:26:12;;;;;;;29.13;12.00;;;15.00;99.90;;;;;;5055159;28;20184;-68
2021/08/18 00:28:38;;;;;;;20.10;11.02;;;15.00;99.90;;;;;;5054938;28;20024;-67
2021/08/18 00:31:04;;;;;;;23.83;10.65;;;15.10;99.90;;;;;;5053623;28;20055;-67
2021/08/18 00:33:31;;;;;;;20.85;9.85;;;15.00;99.90;;;;;;5055041;28;20029;-68
2021/08/18 00:35:57;;;;;;;26.95;11.82;;;15.10;99.90;;;;;;5053855;28;20058;-68
2021/08/18 00:38:23;;;;;;;28.83;11.60;;;15.10;99.90;;;;;;5053502;28;20108;-68
2021/08/18 00:40:49;;;;;;;24.88;11.40;;;15.10;99.90;;;;;;5054522;28;20571;-68
2021/08/18 00:43:18;;;;;;;18.70;9.75;;;15.10;99.90;;;;;;5054564;28;20104;-68
2021/08/18 00:45:44;;;;;;;21.75;11.02;;;15.10;99.90;;;;;;5054277;28;20033;-68
2021/08/18 00:48:10;;;;;;;23.63;10.82;;;15.10;99.90;;;;;;5054556;28;20082;-68
2021/08/18 00:50:36;;;;;;;23.30;10.80;;;15.00;99.90;;;;;;5054637;28;20115;-68
2021/08/18 00:53:02;;;;;;;23.58;11.43;;;15.10;99.90;;;;;;5053181;28;20029;-68
2021/08/18 00:55:28;;;;;;;23.40;10.68;;;15.10;99.90;;;;;;5053291;28;20426;-67
2021/08/18 00:57:55;;;;;;;27.15;11.82;;;15.00;99.90;;;;;;5054051;28;20499;-68
2021/08/18 01:00:23;;;;;;;22.55;11.10;;;15.00;99.90;;;;;;5053106;28;20044;-68
2021/08/18 01:02:49;;;;;;;27.85;12.10;;;15.10;99.90;;;;;;5052885;28;20039;-68
2021/08/18 01:05:20;;;;;;;26.85;12.05;;;15.10;99.90;;;;;;5054201;28;20510;-68
2021/08/18 01:07:48;;;;;;;22.67;10.40;;;15.10;99.90;;;;;;5054266;28;20067;-68
2021/08/18 01:10:19;;;;;;;24.35;10.55;;;15.20;99.90;;;;;;5054351;28;20032;-68
2021/08/18 01:12:45;;;;;;;;;;;15.20;99.90;;;;;;5054281;28;20036;-67
2021/08/18 01:15:14;;;;;;;23.13;10.07;;;15.20;99.90;;;;;;5052406;28;20296;-68
2021/08/18 01:17:46;;;;;;;22.48;11.10;;;15.10;99.90;;;;;;5054112;28;20055;-67
2021/08/18 01:20:17;;;;;;;27.88;11.60;;;15.10;99.90;;;;;;5053911;28;20021;-67
2021/08/18 01:22:44;;;;;;;25.75;10.90;;;15.10;99.90;;;;;;5054104;28;20033;-68
2021/08/18 01:25:12;;;;;;;22.27;10.30;;;15.20;99.90;;;;;;5052817;28;20029;-67
2021/08/18 01:27:45;;;;;;;24.60;10.98;;;15.30;99.90;;;;;;5053773;28;20071;-67
2021/08/18 01:30:11;;;;;;;24.98;11.27;;;15.20;99.90;;;;;;5053665;28;20033;-67
2021/08/18 01:32:54;;;;;;;24.13;11.65;;;15.30;99.90;;;;;;5053753;28;20033;-67
2021/08/18 01:35:28;;;;;;;20.15;10.18;;;15.20;99.90;;;;;;5052964;28;20107;-67
2021/08/18 01:37:54;;;;;;;22.42;10.13;;;15.20;99.90;;;;;;5052198;28;20036;-67
2021/08/18 01:40:23;;;;;;;22.58;11.13;;;15.20;99.90;;;;;;5053687;28;20036;-67
2021/08/18 01:42:50;;;;;;;21.52;9.70;;;15.20;99.90;;;;;;5052048;28;20436;-67
2021/08/18 01:45:29;;;;;;;21.52;10.43;;;15.30;99.90;;;;;;5053698;28;20075;-67
2021/08/18 01:47:57;;;;;;;19.40;8.35;;;15.20;99.90;;;;;;5051908;28;20079;-67
2021/08/18 01:50:26;;;;;;;17.35;9.18;;;15.30;99.90;;;;;;5053744;28;20059;-67
2021/08/18 01:52:55;;;;;;;19.98;9.65;;;15.30;99.90;;;;;;5053325;28;20062;-67
2021/08/18 01:55:23;;;;;;;15.95;8.05;;;15.30;99.90;;;;;;5053324;28;20108;-67
2021/08/18 01:57:49;;;;;;;17.42;8.20;;;15.20;99.90;;;;;;5051798;28;20085;-67
2021/08/18 02:00:16;;;;;;;15.75;8.18;;;15.30;99.90;;;;;;5052001;28;20104;-67
2021/08/18 02:02:42;;;;;;;16.52;7.22;;;15.30;99.90;;;;;;5051683;28;20029;-67
2021/08/18 02:05:09;;;;;;;14.10;7.00;;;15.30;99.90;;;;;;5051769;28;20476;-68
2021/08/18 02:07:36;;;;;;;13.50;6.30;;;15.30;99.90;;;;;;5052069;28;20056;-67
2021/08/18 02:10:08;;;;;;;13.13;6.63;;;15.40;99.90;;;;;;5052122;28;20068;-67
2021/08/18 02:12:35;;;;;;;13.32;7.30;;;15.30;99.90;;;;;;5051948;28;20021;-67
2021/08/18 02:15:04;;;;;;;17.55;7.65;;;15.40;99.90;;;;;;5053015;28;20049;-67
2021/08/18 02:17:30;;;;;;;14.52;7.53;;;15.40;99.90;;;;;;5051919;28;20090;-67
2021/08/18 02:19:56;;;;;;;15.30;7.07;;;15.30;99.90;;;;;;5051788;28;20052;-68
2021/08/18 02:22:21;;;;;;;12.80;6.53;;;15.40;99.90;;;;;;5052682;28;20033;-67
2021/08/18 02:24:47;;;;;;;11.48;6.13;;;15.40;99.90;;;;;;5052524;28;20029;-68
2021/08/18 02:27:13;;;;;;;13.52;6.15;;;15.50;99.90;;;;;;5052182;28;20037;-67
2021/08/18 02:29:38;;;;;;;9.15;5.40;;;15.40;99.90;;;;;;5052482;28;20029;-68
2021/08/18 02:32:05;;;;;;;10.10;6.05;;;15.30;99.90;;;;;;5052703;28;20028;-68
2021/08/18 02:34:30;;;;;;;10.65;5.80;;;15.40;99.90;;;;;;5052479;28;20029;-67
2021/08/18 02:36:56;;;;;;;10.45;5.30;;;15.40;99.90;;;;;;5051351;28;20043;-67
2021/08/18 02:39:22;;;;;;;10.40;5.50;;;15.50;99.90;;;;;;5052402;28;20041;-67
2021/08/18 02:41:47;;;;;;;14.10;6.25;;;15.40;99.90;;;;;;5051202;28;20508;-67
2021/08/18 02:44:14;;;;;;;10.98;5.22;;;15.50;99.90;;;;;;5050945;28;20111;-67
2021/08/18 02:46:39;;;;;;;9.27;4.90;;;15.50;99.90;;;;;;5033290;28;20064;-68
2021/08/18 02:49:05;;;;;;;9.30;5.00;;;15.40;99.90;;;;;;5050687;28;20414;-68
2021/08/18 02:51:31;;;;;;;11.07;5.25;;;15.30;99.90;;;;;;5051415;28;20378;-68
2021/08/18 02:53:57;;;;;;;8.30;5.40;;;15.40;99.90;;;;;;5050385;28;20033;-68
2021/08/18 02:56:22;;;;;;;9.70;4.93;;;15.50;99.90;;;;;;5052112;28;20032;-68
2021/08/18 02:58:48;;;;;;;7.40;4.32;;;15.50;99.90;;;;;;5034082;28;20131;-67
2021/08/18 03:01:14;;;;;;;9.32;5.13;;;15.60;99.90;;;;;;5052461;28;20029;-67
2021/08/18 03:03:39;;;;;;;9.32;5.05;;;15.50;99.90;;;;;;5052035;28;20029;-67
2021/08/18 03:06:05;;;;;;;9.45;5.13;;;15.50;99.90;;;;;;5051907;28;20071;-67
2021/08/18 03:08:31;;;;;;;8.00;4.72;;;15.60;99.90;;;;;;5050802;28;20493;-67
2021/08/18 03:10:57;;;;;;;9.75;4.68;;;15.60;99.90;;;;;;5052174;28;20045;-67
2021/08/18 03:13:23;;;;;;;9.85;5.45;;;15.50;99.90;;;;;;5051952;28;20083;-67
2021/08/18 03:15:49;;;;;;;9.77;5.18;;;15.60;99.90;;;;;;5034109;28;20048;-67
2021/08/18 03:18:14;;;;;;;11.95;5.63;;;15.50;99.90;;;;;;5052044;28;20029;-68
2021/08/18 03:20:40;;;;;;;8.63;4.95;;;15.60;99.90;;;;;;5051951;28;20473;-68
2021/08/18 03:23:06;;;;;;;9.90;5.63;;;15.60;99.90;;;;;;5050860;28;20448;-68
2021/08/18 03:25:32;;;;;;;10.07;5.32;;;15.60;99.90;;;;;;5052150;28;20465;-68
2021/08/18 03:27:58;;;;;;;12.50;5.45;;;15.50;99.90;;;;;;5051729;28;20033;-68
2021/08/18 03:30:24;;;;;;;7.78;5.00;;;15.50;99.90;;;;;;5051835;28;20470;-68
2021/08/18 03:32:50;;;;;;;9.20;5.28;;;15.40;99.90;;;;;;5051616;28;20033;-68
2021/08/18 03:35:15;;;;;;;7.65;5.15;;;15.40;99.90;;;;;;5051722;28;20041;-68
2021/08/18 03:37:41;;;;;;;9.35;5.22;;;15.40;99.90;;;;;;5051764;28;20033;-67
2021/08/18 03:40:08;;;;;;;10.40;5.70;;;15.40;99.90;;;;;;5053835;28;20055;-68
2021/08/18 03:42:33;;;;;;;11.27;6.18;;;15.40;99.90;;;;;;5054536;28;20059;-68
2021/08/18 03:44:59;;;;;;;11.70;6.43;;;15.40;99.90;;;;;;5055687;28;20098;-68
2021/08/18 03:47:25;;;;;;;9.82;6.18;;;15.40;99.90;;;;;;5055948;28;20033;-68
2021/08/18 03:49:50;;;;;;;11.30;6.63;;;15.30;99.90;;;;;;5055373;28;20036;-68
2021/08/18 03:52:16;;;;;;;12.05;6.10;;;15.30;99.90;;;;;;5055833;28;20389;-67
2021/08/18 03:54:42;;;;;;;11.32;6.70;;;15.40;99.90;;;;;;5054528;28;20036;-68
2021/08/18 03:57:07;;;;;;;12.07;6.65;;;15.40;99.90;;;;;;5054144;28;20029;-68
2021/08/18 03:59:33;;;;;;;15.10;6.97;;;15.40;99.90;;;;;;5055593;28;20029;-67
2021/08/18 04:01:59;;;;;;;15.63;8.05;;;15.40;99.90;;;;;;5054204;28;20120;-68
2021/08/18 04:04:24;;;;;;;22.17;7.10;;;15.40;99.90;;;;;;5043595;28;20097;-66
2021/08/18 04:06:50;;;;;;;11.40;6.72;;;15.40;99.90;;;;;;5023059;28;20099;-65
2021/08/18 04:09:16;;;;;;;12.63;6.90;;;15.40;99.90;;;;;;5035544;28;20117;-66
2021/08/18 04:11:42;;;;;;;15.63;7.65;;;15.40;99.90;;;;;;5036703;28;20060;-67
2021/08/18 04:14:10;;;;;;;12.85;7.20;;;15.40;99.90;;;;;;5036281;28;20034;-64
2021/08/18 04:16:36;;;;;;;15.32;8.45;;;15.40;99.90;;;;;;5035401;28;20079;-65
2021/08/18 04:19:02;;;;;;;16.45;8.25;;;15.40;99.90;;;;;;5033729;28;20072;-65
2021/08/18 04:21:28;;;;;;;13.75;7.43;;;15.30;99.90;;;;;;5033837;28;20394;-65
2021/08/18 04:23:53;;;;;;;13.48;8.00;;;15.20;99.90;;;;;;5035023;28;20044;-64
2021/08/18 04:26:19;;;;;;;16.60;8.18;;;15.10;99.90;;;;;;5034856;28;20041;-66
2021/08/18 04:28:45;;;;;;;14.55;8.15;;;15.00;99.90;;;;;;5033603;28;20030;-66
2021/08/18 04:31:11;;;;;;;13.10;7.95;;;15.20;99.90;;;;;;5034910;28;20029;-64
2021/08/18 04:33:36;;;;;;;13.75;7.40;;;15.20;99.90;;;;;;5035147;28;20034;-64
2021/08/18 04:36:03;;;;;;;14.20;7.88;;;15.20;99.90;;;;;;5033627;28;20029;-65
2021/08/18 04:38:28;;;;;;;15.77;8.50;;;15.20;99.90;;;;;;5034502;28;20036;-64
2021/08/18 04:40:54;;;;;;;12.45;7.45;;;15.20;99.90;;;;;;5034547;28;20038;-65
2021/08/18 04:43:20;;;;;;;12.32;7.32;;;15.30;99.90;;;;;;5034898;28;20030;-65
2021/08/18 04:45:46;;;;;;;12.65;7.45;;;15.40;99.90;;;;;;5049746;28;20040;-65
2021/08/18 04:48:12;;;;;;;11.90;7.55;;;15.40;99.90;;;;;;5050141;28;20500;-64
2021/08/18 04:50:38;;;;;;;14.38;7.30;;;15.50;99.90;;;;;;5049142;28;20099;-64
2021/08/18 04:53:11;;;;;;;18.00;7.40;;;15.60;99.90;;;;;;5049892;28;20031;-64
2021/08/18 04:55:39;;;;;;;13.98;7.90;;;15.60;99.90;;;;;;5049651;28;20038;-65
2021/08/18 04:58:05;;;;;;;12.70;7.43;;;15.60;99.90;;;;;;5049653;28;20104;-64
2021/08/18 05:00:31;;;;;;;13.13;7.85;;;15.60;99.90;;;;;;5050016;28;20042;-63
2021/08/18 05:03:00;;;;;;;12.32;6.93;;;15.60;99.90;;;;;;5034387;28;20057;-64
2021/08/18 05:05:26;;;;;;;11.70;7.82;;;15.50;99.90;;;;;;5020271;28;20036;-65
2021/08/18 05:07:52;;;;;;;11.88;7.07;;;15.60;99.90;;;;;;5013258;28;20029;-65
2021/08/18 05:10:18;;;;;;;10.20;6.72;;;15.60;99.90;;;;;;5015028;28;20091;-65
2021/08/18 05:12:45;;;;;;;12.93;7.28;;;15.60;99.90;;;;;;5032703;28;20033;-65
2021/08/18 05:15:11;;;;;;;12.70;7.70;;;15.60;99.90;;;;;;5033724;28;20482;-65
2021/08/18 05:17:37;;;;;;;13.00;7.00;;;15.60;99.90;;;;;;5033991;28;20136;-65
2021/08/18 05:20:07;;;;;;;13.55;7.55;;;15.70;99.90;;;;;;5032607;28;20034;-65
2021/08/18 05:22:32;;;;;;;13.05;7.88;;;15.60;99.90;;;;;;5031571;28;20070;-66
2021/08/18 05:24:58;;;;;;;12.52;6.80;;;15.60;99.90;;;;;;5031465;28;20029;-65
2021/08/18 05:27:24;;;;;;;12.50;7.03;;;15.60;99.90;;;;;;5021934;28;20117;-65
2021/08/18 05:29:50;;;;;;;12.52;7.32;;;15.70;99.90;;;;;;5030364;28;20029;-65
2021/08/18 05:32:15;;;;;;;10.10;7.00;;;15.70;99.90;;;;;;5032935;28;20112;-65
2021/08/18 05:34:41;;;;;;;13.98;7.35;;;15.70;99.90;;;;;;5033268;28;20052;-65
2021/08/18 05:37:07;;;;;;;10.73;6.53;;;15.80;99.90;;;;;;5034014;28;20027;-65
2021/08/18 05:39:32;;;;;;;11.40;6.93;;;15.80;99.90;;;;;;5033485;28;20112;-66
2021/08/18 05:41:58;;;;;;;11.27;6.22;;;15.90;99.90;;;;;;5033418;28;20121;-66
2021/08/18 05:44:24;;;;;;;13.13;7.32;;;15.90;99.90;;;;;;5048927;28;20108;-66
2021/08/18 05:46:52;;;;;;;10.90;6.32;;;15.90;99.90;;;;;;5033483;28;20025;-66
2021/08/18 05:49:21;;;;;;;9.45;6.28;;;15.90;99.90;;;;;;5031933;28;20025;-66
2021/08/18 05:51:51;;;;;;;11.10;6.30;;;15.90;99.90;;;;;;5033252;28;20397;-66
2021/08/18 05:54:17;;;;;;;10.40;6.28;;;15.90;99.90;;;;;;5033696;28;20504;-66
2021/08/18 05:56:43;;;;;;;12.52;6.68;;;15.80;99.90;;;;;;5033201;28;20676;-66
2021/08/18 05:59:09;;;;;;;12.10;6.75;;;15.90;99.90;;;;;;5033437;28;20069;-66
2021/08/18 06:01:36;;;;;;;11.98;6.80;;;15.90;99.90;;;;;;5032671;28;20076;-66
2021/08/18 06:04:02;;;;;;;8.90;6.00;;;16.00;99.90;;;;;;5031882;28;20436;-66
2021/08/18 06:06:28;;;;;;;9.27;5.47;;;16.10;99.90;;;;;;5033093;28;20026;-66
2021/08/18 06:08:55;;;;;;;11.35;6.40;;;16.00;99.90;;;;;;5033081;28;20052;-66
2021/08/18 06:11:21;;;;;;;9.25;5.78;;;16.10;99.90;;;;;;5033382;28;20030;-66
2021/08/18 06:13:47;;;;;;;9.30;6.25;;;16.10;99.90;;;;;;5031844;28;20041;-66
2021/08/18 06:16:12;;;;;;;11.00;5.60;;;16.10;99.90;;;;;;5032639;28;20048;-66
2021/08/18 06:18:38;;;;;;;12.48;5.60;;;16.20;99.90;;;;;;5033161;28;20043;-66
2021/08/18 06:21:04;;;;;;;12.00;6.03;;;16.10;99.90;;;;;;5035491;28;20381;-66
2021/08/18 06:23:32;;;;;;;8.02;5.60;;;16.20;99.90;;;;;;5031870;28;20526;-66
2021/08/18 06:25:58;;;;;;;9.77;5.72;;;16.20;99.90;;;;;;5032405;28;20136;-66
2021/08/18 06:28:25;;;;;;;10.68;5.80;;;16.20;99.90;;;;;;5032554;28;20457;-66
2021/08/18 06:30:52;;;;;;;8.38;5.28;;;16.20;99.90;;;;;;5032723;28;20052;-66
2021/08/18 06:33:17;;;;;;;7.20;4.78;;;16.10;99.90;;;;;;5031380;28;20108;-66
2021/08/18 06:35:43;;;;;;;10.55;5.57;;;16.30;99.90;;;;;;5032477;28;20439;-66
2021/08/18 06:38:09;;;;;;;8.98;4.85;;;16.50;99.90;;;;;;5032212;28;20584;-66
2021/08/18 06:40:35;;;;;;;10.43;5.10;;;16.40;99.90;;;;;;5032794;28;20072;-66
2021/08/18 06:43:01;;;;;;;9.10;5.20;;;16.50;99.90;;;;;;5032350;28;20061;-66
2021/08/18 06:45:29;;;;;;;8.73;4.72;;;16.50;99.90;;;;;;5032107;28;20386;-66
2021/08/18 06:47:55;;;;;;;8.10;4.88;;;16.40;99.90;;;;;;5031960;28;20029;-66
2021/08/18 06:50:22;;;;;;;9.50;4.82;;;16.50;99.90;;;;;;5031305;28;20104;-66
2021/08/18 06:52:48;;;;;;;7.40;4.15;;;16.50;99.90;;;;;;5031274;28;20083;-66
2021/08/18 06:55:14;;;;;;;7.22;4.07;;;16.70;99.90;;;;;;5030979;28;20041;-65
2021/08/18 06:57:40;;;;;;;5.68;4.00;;;16.70;99.90;;;;;;5031384;28;20052;-65
2021/08/18 07:00:09;;;;;;;5.82;3.70;;;16.80;99.90;;;;;;5032269;28;20037;-66
2021/08/18 07:02:45;;;;;;;6.32;3.63;;;16.80;99.90;;;;;;5030698;28;20091;-66
2021/08/18 07:05:13;;;;;;;5.80;3.47;;;16.90;99.90;;;;;;5030866;28;20095;-66
2021/08/18 07:07:39;;;;;;;8.20;4.40;;;16.90;99.90;;;;;;5032408;28;20034;-66
2021/08/18 07:10:06;;;;;;;6.78;3.80;;;16.90;99.90;;;;;;5032360;28;20508;-66
2021/08/18 07:12:32;;;;;;;7.15;3.85;;;17.00;99.90;;;;;;4998329;28;20128;-66
2021/08/18 07:14:58;;;;;;;9.43;4.68;;;17.10;99.90;;;;;;5031924;28;20534;-66
2021/08/18 07:17:24;;;;;;;6.88;3.80;;;17.10;99.90;;;;;;5030935;28;20033;-66
2021/08/18 07:19:49;;;;;;;7.47;3.97;;;17.30;99.90;;;;;;5032313;28;20026;-66
2021/08/18 07:22:15;;;;;;;6.25;4.00;;;17.30;99.90;;;;;;5032059;28;20029;-65
2021/08/18 07:24:41;;;;;;;7.45;3.58;;;17.30;99.90;;;;;;5032034;28;20041;-65
2021/08/18 07:27:06;;;;;;;8.02;3.55;;;17.30;99.90;;;;;;5031928;28;20049;-65
2021/08/18 07:29:32;;;;;;;8.93;4.03;;;17.30;99.90;;;;;;5031979;28;20029;-65
2021/08/18 07:31:58;;;;;;;7.70;4.00;;;17.30;99.90;;;;;;5031792;28;20061;-65
2021/08/18 07:34:24;;;;;;;8.00;3.67;;;17.30;99.90;;;;;;5031776;28;20030;-65
2021/08/18 07:36:49;;;;;;;8.55;3.90;;;17.30;99.90;;;;;;5030526;28;20084;-65
2021/08/18 07:39:15;;;;;;;7.57;4.03;;;17.30;99.90;;;;;;5031708;28;20041;-65
2021/08/18 07:41:41;;;;;;;7.53;3.92;;;17.30;99.90;;;;;;5030909;28;20025;-65
2021/08/18 07:44:07;;;;;;;8.60;4.00;;;17.40;99.90;;;;;;5031549;28;20033;-65
2021/08/18 07:46:32;;;;;;;6.40;3.67;;;17.50;99.90;;;;;;5014496;28;20036;-66
2021/08/18 07:48:58;;;;;;;5.55;3.83;;;17.40;99.90;;;;;;5031790;28;20021;-67
2021/08/18 07:51:25;;;;;;;6.80;3.65;;;17.60;99.90;;;;;;5031882;28;20042;-67
2021/08/18 07:53:50;;;;;;;6.15;3.40;;;17.80;99.90;;;;;;5031883;28;20028;-67
2021/08/18 07:56:16;;;;;;;4.80;3.47;;;17.70;99.90;;;;;;5031874;28;20442;-67
2021/08/18 07:58:42;;;;;;;7.70;3.63;;;18.00;99.90;;;;;;5030307;28;20060;-67
2021/08/18 08:01:08;;;;;;;7.65;3.13;;;17.90;99.90;;;;;;5031970;28;20045;-66
2021/08/18 08:03:33;;;;;;;6.75;3.50;;;18.00;99.90;;;;;;5030361;28;20040;-67
2021/08/18 08:05:59;;;;;;;4.53;3.33;;;18.10;99.90;;;;;;5031507;28;20114;-67
2021/08/18 08:08:25;;;;;;;7.15;3.20;;;18.00;99.90;;;;;;5031492;28;20041;-67
2021/08/18 08:10:51;;;;;;;4.50;2.70;;;18.20;99.90;;;;;;5031594;28;20044;-67
2021/08/18 08:13:16;;;;;;;7.43;4.70;;;18.30;99.90;;;;;;5031694;28;20029;-67
2021/08/18 08:15:42;;;;;;;5.35;3.10;;;18.30;99.90;;;;;;5031458;28;20053;-67
2021/08/18 08:18:09;;;;;;;6.78;3.20;;;18.50;99.90;;;;;;5031246;28;20105;-68
2021/08/18 08:20:35;;;;;;;4.63;2.88;;;18.60;99.90;;;;;;5032227;28;20064;-68
2021/08/18 08:23:02;;;;;;;6.75;3.70;;;18.50;99.90;;;;;;5033282;28;20431;-68
2021/08/18 08:25:28;;;;;;;4.95;3.00;;;18.50;99.90;;;;;;5033336;28;20061;-67
2021/08/18 08:27:54;;;;;;;5.03;3.22;;;18.30;99.90;;;;;;5034902;28;20429;-68
2021/08/18 08:30:19;;;;;;;4.63;2.85;;;18.30;99.90;;;;;;5034891;28;20138;-68
2021/08/18 08:32:46;;;;;;;6.85;3.35;;;18.40;99.90;;;;;;5035009;28;20029;-67
2021/08/18 08:35:12;;;;;;;7.03;3.72;;;18.50;99.90;;;;;;5033662;28;20025;-67
2021/08/18 08:37:38;;;;;;;6.55;3.45;;;18.50;99.90;;;;;;5034983;28;20026;-68
2021/08/18 08:40:04;;;;;;;6.15;3.72;;;18.70;99.90;;;;;;5033639;28;20029;-67
2021/08/18 08:42:32;;;;;;;6.40;3.67;;;18.70;99.90;;;;;;5034707;28;20025;-67
2021/08/18 08:45:00;;;;;;;6.10;2.95;;;18.50;99.90;;;;;;5034648;28;20040;-67
2021/08/18 08:47:26;;;;;;;4.82;2.90;;;18.60;99.90;;;;;;5034630;28;20385;-67
2021/08/18 08:49:53;;;;;;;8.07;2.85;;;18.70;99.90;;;;;;5033160;28;20025;-67
2021/08/18 08:52:19;;;;;;;4.45;3.20;;;18.70;99.90;;;;;;5033436;28;20382;-67
2021/08/18 08:54:44;;;;;;;4.25;2.70;;;18.90;99.90;;;;;;5034580;28;20026;-67
2021/08/18 08:57:13;;;;;;;3.90;2.35;;;18.80;99.90;;;;;;5033151;28;20042;-67
2021/08/18 08:59:39;;;;;;;5.00;2.80;;;18.70;99.90;;;;;;5034360;28;20026;-67
2021/08/18 09:02:12;;;;;;;5.63;2.88;;;18.90;99.90;;;;;;5034668;28;20116;-67
2021/08/18 09:04:49;;;;;;;4.97;2.33;;;19.00;99.90;;;;;;5033813;28;20040;-67
2021/08/18 09:07:21;;;;;;;6.35;2.70;;;19.10;99.90;;;;;;5032800;28;20148;-67
2021/08/18 09:09:58;;;;;;;4.57;2.42;;;19.20;99.90;;;;;;5034506;28;20040;-67
2021/08/18 09:12:36;;;;;;;2.90;2.10;;;19.40;99.90;;;;;;5034356;28;20037;-67
2021/08/18 09:15:22;;;;;;;5.00;2.45;;;19.20;99.90;;;;;;5033865;28;20075;-66
2021/08/18 09:17:52;;;;;;;4.55;2.17;;;19.30;99.90;;;;;;5034725;28;20041;-67
2021/08/18 09:20:23;;;;;;;3.90;2.47;;;19.20;99.90;;;;;;5033135;28;20041;-67
2021/08/18 09:22:56;;;;;;;3.03;2.00;;;19.30;99.90;;;;;;5033926;28;20398;-67
2021/08/18 09:25:35;;;;;;;4.25;2.40;;;19.40;99.90;;;;;;5032913;28;20037;-67
2021/08/18 09:28:01;;;;;;;3.13;1.85;;;19.40;99.90;;;;;;5032679;28;20368;-68
2021/08/18 09:30:29;;;;;;;4.05;1.98;;;19.50;99.90;;;;;;5033558;28;20106;-68
2021/08/18 09:33:05;;;;;;;3.42;1.85;;;19.50;99.90;;;;;;5033942;28;20027;-68
2021/08/18 09:35:31;;;;;;;4.00;2.22;;;19.60;99.90;;;;;;5032336;28;20060;-67
2021/08/18 09:38:08;;;;;;;4.70;2.30;;;19.70;99.90;;;;;;5033681;28;20454;-67
2021/08/18 09:40:48;;;;;;;4.85;2.30;;;19.50;99.90;;;;;;5016233;28;20025;-67
2021/08/18 09:43:26;;;;;;;3.22;1.98;;;19.60;99.90;;;;;;5033692;28;20112;-66
2021/08/18 09:46:04;;;;;;;3.50;2.25;;;19.40;99.90;;;;;;5032372;28;20056;-67
2021/08/18 09:48:35;;;;;;;3.20;1.95;;;19.30;99.90;;;;;;5032505;28;20415;-67
2021/08/18 09:51:12;;;;;;;4.72;2.00;;;19.30;99.90;;;;;;5031930;28;20053;-67
2021/08/18 09:53:43;;;;;;;3.55;2.22;;;19.40;99.90;;;;;;5033572;28;20043;-67
2021/08/18 09:56:16;;;;;;;3.33;2.20;;;19.30;99.90;;;;;;5033024;28;20557;-67
2021/08/18 09:58:57;;;;;;;3.33;1.95;;;19.00;99.90;;;;;;5032072;28;20075;-68
2021/08/18 10:01:24;;;;;;;3.13;2.03;;;19.10;99.90;;;;;;5032076;28;20485;-67
2021/08/18 10:03:55;;;;;;;4.05;2.47;;;19.10;99.90;;;;;;5033387;28;20554;-67
2021/08/18 10:06:20;;;;;;;;;;;19.20;99.90;;;;;;5033367;28;20101;-67
2021/08/18 10:08:54;;;;;;;3.78;2.25;;;19.20;99.90;;;;;;5031833;28;19925;-67
2021/08/18 10:11:22;;;;;;;3.60;2.38;;;19.20;99.90;;;;;;5016249;28;20056;-67
2021/08/18 10:13:49;;;;;;;3.90;2.30;;;19.30;99.90;;;;;;5031958;28;20112;-67
2021/08/18 10:16:16;;;;;;;4.20;2.60;;;19.30;99.90;;;;;;5031406;28;20052;-68
2021/08/18 10:18:52;;;;;;;3.85;2.30;;;19.40;99.90;;;;;;5048207;28;20088;-67
2021/08/18 10:21:30;;;;;;;3.42;2.10;;;19.30;99.90;;;;;;5031438;28;20060;-67
2021/08/18 10:24:07;;;;;;;3.60;2.42;;;19.50;99.90;;;;;;5033073;28;20029;-67
2021/08/18 10:26:38;;;;;;;4.53;2.72;;;19.40;99.90;;;;;;5031393;28;20380;-67
2021/08/18 10:29:16;;;;;;;4.65;2.90;;;19.60;99.90;;;;;;5033092;28;20030;-67
2021/08/18 10:31:48;;;;;;;4.85;2.95;;;19.50;99.90;;;;;;5050212;28;20397;-66
2021/08/18 10:34:25;;;;;;;5.43;2.80;;;19.40;99.90;;;;;;5052633;28;20419;-66
2021/08/18 10:36:55;;;;;;;4.07;2.67;;;19.50;99.90;;;;;;5052370;28;20029;-66
2021/08/18 10:39:21;;;;;;;4.35;2.50;;;19.40;99.90;;;;;;5052474;28;20037;-66
2021/08/18 10:42:07;;;;;;;4.53;2.72;;;19.40;99.90;;;;;;5052629;28;20056;-66
2021/08/18 10:44:38;;;;;;;4.93;2.80;;;19.30;99.90;;;;;;5052595;28;20470;-67
2021/08/18 10:47:31;;;;;;;3.53;2.17;;;19.20;99.90;;;;;;5051086;28;20033;-67
2021/08/18 10:50:26;;;;;;;4.35;2.10;;;19.20;99.90;;;;;;5050917;28;20176;-68
2021/08/18 10:52:54;;;;;;;3.30;1.85;;;19.10;99.90;;;;;;5052165;28;20050;-68
2021/08/18 10:55:25;;;;;;;3.40;2.00;;;19.10;99.90;;;;;;5034353;28;20029;-68
2021/08/18 10:57:55;;;;;;;3.53;1.92;;;19.10;99.90;;;;;;5051173;28;20048;-68
2021/08/18 11:00:42;;;;;;;3.05;1.77;;;19.00;99.90;;;;;;5034055;28;20033;-67
2021/08/18 11:03:12;;;;;;;4.05;1.75;;;19.10;99.90;;;;;;5052079;28;20482;-68
2021/08/18 11:05:37;;;;;;;3.05;1.60;;;19.20;99.90;;;;;;5040881;28;20041;-68
2021/08/18 11:08:16;;;;;;;2.25;1.38;;;19.20;99.90;;;;;;5012753;28;20030;-68
2021/08/18 11:11:03;;;;;;;3.45;2.20;;;19.20;99.90;;;;;;5011045;28;20477;-68
2021/08/18 11:14:07;;;;;;;2.67;1.70;;;19.20;99.90;;;;;;5012233;28;20066;-68
2021/08/18 11:16:32;;;;;;;2.22;1.33;;;19.30;99.90;;;;;;5011035;28;20049;-68
2021/08/18 11:19:12;;;;;;;3.17;1.65;;;19.20;99.90;;;;;;5027591;28;20030;-68
2021/08/18 11:21:41;;;;;;;4.75;1.80;;;19.20;99.90;;;;;;5012526;28;20042;-68
2021/08/18 11:24:13;;;;;;;2.75;1.60;;;19.40;99.90;;;;;;5011117;28;20030;-68
2021/08/18 11:26:43;;;;;;;2.58;1.45;;;19.40;99.90;;;;;;5010815;28;20038;-69
2021/08/18 11:29:21;;;;;;;1.83;1.23;;;19.40;99.90;;;;;;5011180;28;20478;-69
2021/08/18 11:31:53;;;;;;;4.22;1.30;;;19.40;99.90;;;;;;5011300;28;20477;-68
2021/08/18 11:34:29;;;;;;;3.08;1.92;;;19.40;99.90;;;;;;5010981;28;20030;-68
2021/08/18 11:37:12;;;;;;;2.85;1.30;;;19.50;99.90;;;;;;5011923;28;20022;-68
2021/08/18 11:39:44;;;;;;;2.05;1.13;;;19.50;99.90;;;;;;5011405;28;20123;-68
2021/08/18 11:42:14;;;;;;;1.80;1.10;;;19.70;99.90;;;;;;5011738;28;20036;-68
2021/08/18 11:44:42;;;;;;;2.85;1.35;;;19.80;99.90;;;;;;5011254;28;20092;-68
2021/08/18 11:47:14;;;;;;;2.00;1.10;;;19.80;99.90;;;;;;5010737;28;20042;-68
2021/08/18 11:49:44;;;;;;;1.88;1.02;;;19.90;99.90;;;;;;5010767;28;20382;-68
2021/08/18 11:52:19;;;;;;;2.60;1.40;;;20.00;99.90;;;;;;5011804;28;20057;-68
2021/08/18 11:54:53;;;;;;;1.73;1.05;;;20.20;99.90;;;;;;5010830;28;20041;-68
2021/08/18 11:57:20;;;;;;;2.25;1.05;;;20.50;99.90;;;;;;5010577;28;20034;-68
2021/08/18 11:59:54;;;;;;;2.35;1.08;;;20.50;99.90;;;;;;5011922;28;20507;-68
2021/08/18 12:02:25;;;;;;;2.17;1.45;;;20.50;99.90;;;;;;5015671;28;20042;-68
2021/08/18 12:04:55;;;;;;;2.00;1.20;;;20.50;99.90;;;;;;5015752;28;20034;-68
2021/08/18 12:07:21;;;;;;;3.13;1.20;;;21.00;99.90;;;;;;5014412;28;20406;-68
2021/08/18 12:10:23;;;;;;;3.63;1.17;;;21.30;99.90;;;;;;5015952;28;20034;-68
2021/08/18 12:13:11;;;;;;;5.75;1.88;;;21.70;99.90;;;;;;5030347;28;20072;-68
2021/08/18 12:15:45;;;;;;;2.55;1.42;;;21.80;99.90;;;;;;5013905;28;20096;-68
2021/08/18 12:18:37;;;;;;;1.80;1.00;;;22.10;99.90;;;;;;5015342;28;20037;-68
2021/08/18 12:21:27;;;;;;;2.33;1.27;;;22.20;99.90;;;;;;5014098;28;20031;-68
2021/08/18 12:24:07;;;;;;;3.30;1.27;;;22.80;99.90;;;;;;4999030;28;20045;-68
2021/08/18 12:26:36;;;;;;;1.88;1.10;;;23.40;99.90;;;;;;5014968;28;20120;-69
2021/08/18 12:29:06;;;;;;;2.95;1.42;;;23.60;99.90;;;;;;5015619;28;20498;-68
2021/08/18 12:31:55;;;;;;;2.22;1.30;;;23.30;99.90;;;;;;5031772;28;20064;-69
2021/08/18 12:34:42;;;;;;;3.00;1.30;;;23.40;99.90;;;;;;5024289;28;20045;-69
2021/08/18 12:37:22;;;;;;;2.70;1.60;;;22.90;99.90;;;;;;5033504;28;20041;-68
2021/08/18 12:40:04;;;;;;;1.75;1.17;;;22.50;99.90;;;;;;5033757;28;20125;-68
2021/08/18 12:42:35;;;;;;;1.85;1.27;;;22.00;99.90;;;;;;5033123;28;20075;-69
2021/08/18 12:45:16;;;;;;;2.25;1.30;;;21.90;99.90;;;;;;5033611;28;20234;-68
2021/08/18 12:47:51;;;;;;;4.10;2.33;;;22.00;99.90;;;;;;5033030;28;20034;-69
2021/08/18 12:50:35;;;;;;;4.03;1.30;;;21.80;99.90;;;;;;5034432;28;20044;-69